Time;durP1;ratioP1;P1;durP2;ratioP2;P2;SDS_P1;SDS_P2;PMS_P1;PMS_P2;Temp;Humidity;BMP_temperature;BMP_pressure;BME280_temperature;BME280_humidity;BME280_pressure;Samples;Min_cycle;Max_cycle;Signal;HPM_P1;HPM_P2
2021/11/27 00:01:17;;;;;;;7.07;2.50;;;;;;;;;;5065090;28;20024;-89
2021/11/27 00:03:42;;;;;;;4.60;2.43;;;;;;;;;;5065269;28;20018;-89
2021/11/27 00:06:08;;;;;;;5.60;2.77;;;;;;;;;;5031880;28;20041;-89
2021/11/27 00:08:34;;;;;;;5.17;2.43;;;;;;;;;;5064928;28;20159;-88
2021/11/27 00:10:59;;;;;;;5.90;2.80;;;;;;;;;;5065297;28;20052;-89
2021/11/27 00:13:25;;;;;;;6.23;3.03;;;;;;;;;;5032467;28;20029;-88
2021/11/27 00:15:51;;;;;;;5.90;2.50;;;;;;;;;;5031636;28;20104;-88
2021/11/27 00:18:17;;;;;;;7.47;3.27;;;;;;;;;;5065250;28;20057;-89
2021/11/27 00:20:54;;;;;;;5.37;2.70;;;;;;;;;;5064860;28;20723;-89
2021/11/27 00:23:19;;;;;;;5.90;2.90;;;;;;;;;;5070976;28;20067;-88
2021/11/27 00:25:45;;;;;;;5.70;2.77;;;;;;;;;;5073626;28;20017;-89
2021/11/27 00:28:10;;;;;;;7.97;3.20;;;;;;;;;;5065189;28;20018;-89
2021/11/27 00:30:36;;;;;;;5.80;3.47;;;;;;;;;;5032438;28;20451;-89
2021/11/27 00:33:02;;;;;;;6.23;3.10;;;;;;;;;;5065072;28;20451;-89
2021/11/27 00:35:28;;;;;;;7.93;3.27;;;;;;;;;;5065036;28;20049;-89
2021/11/27 00:37:55;;;;;;;5.47;2.83;;;;;;;;;;5036387;28;20092;-88
2021/11/27 00:40:20;;;;;;;6.77;3.10;;;;;;;;;;5068337;28;20021;-88
2021/11/27 00:42:46;;;;;;;5.60;2.60;;;;;;;;;;5068276;28;20025;-89
2021/11/27 00:45:13;;;;;;;7.87;3.27;;;;;;;;;;5035231;28;20024;-89
2021/11/27 00:47:42;;;;;;;6.30;3.27;;;;;;;;;;5068506;28;20026;-89
2021/11/27 00:50:09;;;;;;;6.43;3.20;;;;;;;;;;5068204;28;20393;-88
2021/11/27 00:52:35;;;;;;;6.30;3.47;;;;;;;;;;5068497;28;20021;-88
2021/11/27 00:55:01;;;;;;;6.67;3.10;;;;;;;;;;5068458;28;20029;-88
2021/11/27 00:57:26;;;;;;;7.33;3.40;;;;;;;;;;5068448;28;20048;-88
2021/11/27 00:59:51;;;;;;;11.07;4.23;;;;;;;;;;5068450;28;20032;-88
2021/11/27 01:02:16;;;;;;;9.53;4.10;;;;;;;;;;5035109;28;20025;-89
2021/11/27 01:04:42;;;;;;;10.37;4.93;;;;;;;;;;5068352;28;20021;-89
2021/11/27 01:07:09;;;;;;;9.70;4.43;;;;;;;;;;5068335;28;20041;-88
2021/11/27 01:09:35;;;;;;;10.93;5.00;;;;;;;;;;5068342;28;20029;-88
2021/11/27 01:12:00;;;;;;;10.43;5.23;;;;;;;;;;5068169;28;20458;-88
2021/11/27 01:14:27;;;;;;;7.30;4.27;;;;;;;;;;5034796;28;20029;-88
2021/11/27 01:16:54;;;;;;;10.87;4.07;;;;;;;;;;5068346;28;20026;-88
2021/11/27 01:19:20;;;;;;;6.27;4.17;;;;;;;;;;5068104;28;20066;-88
2021/11/27 01:21:48;;;;;;;7.43;3.50;;;;;;;;;;5062877;28;20495;-89
2021/11/27 01:24:14;;;;;;;5.37;3.13;;;;;;;;;;5054393;28;20028;-89
2021/11/27 01:26:39;;;;;;;8.50;2.87;;;;;;;;;;5088285;28;20119;-88
2021/11/27 01:29:05;;;;;;;5.23;3.10;;;;;;;;;;5073632;28;20116;-89
2021/11/27 01:31:31;;;;;;;5.37;2.60;;;;;;;;;;5087996;28;20387;-88
2021/11/27 01:33:56;;;;;;;5.93;2.87;;;;;;;;;;5087908;28;20033;-88
2021/11/27 01:36:21;;;;;;;4.73;2.47;;;;;;;;;;5086968;28;20029;-89
2021/11/27 01:38:46;;;;;;;3.97;2.40;;;;;;;;;;5067542;28;20029;-88
2021/11/27 01:41:14;;;;;;;5.27;2.47;;;;;;;;;;5078136;28;20434;-89
2021/11/27 01:43:40;;;;;;;3.77;1.93;;;;;;;;;;5087575;28;20056;-89
2021/11/27 01:46:05;;;;;;;3.90;1.90;;;;;;;;;;5046709;28;20061;-89
2021/11/27 01:48:31;;;;;;;3.40;1.90;;;;;;;;;;5033704;28;20365;-89
2021/11/27 01:50:58;;;;;;;4.53;2.00;;;;;;;;;;5049076;28;20031;-89
2021/11/27 01:53:24;;;;;;;2.97;1.80;;;;;;;;;;5046792;28;20115;-89
2021/11/27 01:55:52;;;;;;;4.73;2.13;;;;;;;;;;5087270;28;20059;-88
2021/11/27 01:58:17;;;;;;;5.13;2.13;;;;;;;;;;5087472;28;20020;-89
2021/11/27 02:00:45;;;;;;;4.57;2.50;;;;;;;;;;5054978;28;20917;-89
2021/11/27 02:03:10;;;;;;;5.07;2.27;;;;;;;;;;5046431;28;20018;-89
2021/11/27 02:05:35;;;;;;;5.10;2.27;;;;;;;;;;5048352;28;20021;-89
2021/11/27 02:08:01;;;;;;;5.10;2.10;;;;;;;;;;5079303;28;20025;-89
2021/11/27 02:10:26;;;;;;;4.53;2.50;;;;;;;;;;5069145;28;20064;-89
2021/11/27 02:12:52;;;;;;;6.77;2.70;;;;;;;;;;5052217;28;20020;-89
2021/11/27 02:15:18;;;;;;;6.43;2.60;;;;;;;;;;5086782;28;20028;-89
2021/11/27 02:17:43;;;;;;;5.13;2.60;;;;;;;;;;5084260;28;20548;-89
2021/11/27 02:20:09;;;;;;;10.13;3.53;;;;;;;;;;5041885;28;20064;-89
2021/11/27 02:22:35;;;;;;;6.83;3.10;;;;;;;;;;5086610;28;20041;-89
2021/11/27 02:25:06;;;;;;;7.27;2.93;;;;;;;;;;5086840;28;20032;-88
2021/11/27 02:27:32;;;;;;;5.80;2.88;;;;;;;;;;5054593;28;20112;-89
2021/11/27 02:29:57;;;;;;;6.80;2.80;;;;;;;;;;5086216;28;20056;-89
2021/11/27 02:32:22;;;;;;;6.03;3.03;;;;;;;;;;5053765;28;20024;-88
2021/11/27 02:34:48;;;;;;;7.87;3.43;;;;;;;;;;5053038;28;20028;-89
2021/11/27 02:37:13;;;;;;;6.33;2.93;;;;;;;;;;5054497;28;20048;-89
2021/11/27 02:39:39;;;;;;;7.37;3.30;;;;;;;;;;5086799;28;20111;-88
2021/11/27 02:42:04;;;;;;;7.47;3.37;;;;;;;;;;5086732;28;20107;-89
2021/11/27 02:44:31;;;;;;;8.80;3.47;;;;;;;;;;5086496;28;20045;-89
2021/11/27 02:46:57;;;;;;;6.37;3.40;;;;;;;;;;5086637;28;20032;-88
2021/11/27 02:49:22;;;;;;;7.83;3.60;;;;;;;;;;5086651;28;20024;-88
2021/11/27 02:51:48;;;;;;;8.67;3.50;;;;;;;;;;5086334;28;20032;-89
2021/11/27 02:54:14;;;;;;;10.43;3.60;;;;;;;;;;5054049;28;20044;-89
2021/11/27 02:56:39;;;;;;;8.67;3.60;;;;;;;;;;5086174;28;20112;-88
2021/11/27 02:59:34;;;;;;;8.97;3.40;;;;;;;;;;5019861;28;20013;-89
2021/11/27 03:02:00;;;;;;;7.37;3.80;;;;;;;;;;5016890;28;20041;-89
2021/11/27 03:04:26;;;;;;;8.43;3.60;;;;;;;;;;5040640;28;20021;-89
2021/11/27 03:06:52;;;;;;;10.17;3.63;;;;;;;;;;5085957;28;20033;-88
2021/11/27 03:09:18;;;;;;;9.43;3.57;;;;;;;;;;5086280;28;20025;-89
2021/11/27 03:11:44;;;;;;;8.43;3.83;;;;;;;;;;5053681;28;20025;-90
2021/11/27 03:14:10;;;;;;;9.13;4.00;;;;;;;;;;5086062;28;20056;-88
2021/11/27 03:16:38;;;;;;;9.20;3.57;;;;;;;;;;5085128;28;20044;-89
2021/11/27 03:19:04;;;;;;;9.07;3.67;;;;;;;;;;5052392;28;20025;-89
2021/11/27 03:21:29;;;;;;;8.57;3.97;;;;;;;;;;5085975;28;20017;-88
2021/11/27 03:23:54;;;;;;;9.10;3.77;;;;;;;;;;5085757;28;20044;-88
2021/11/27 03:26:19;;;;;;;7.30;3.60;;;;;;;;;;5038865;28;20104;-89
2021/11/27 03:28:45;;;;;;;8.03;3.80;;;;;;;;;;5085819;28;20013;-89
2021/11/27 03:31:11;;;;;;;7.43;3.40;;;;;;;;;;5071387;28;20056;-88
2021/11/27 03:33:36;;;;;;;7.00;3.47;;;;;;;;;;5052481;28;20039;-88
2021/11/27 03:36:02;;;;;;;9.83;3.83;;;;;;;;;;5085895;28;20020;-89
2021/11/27 03:38:27;;;;;;;7.67;3.67;;;;;;;;;;5053250;28;20460;-89
2021/11/27 03:40:52;;;;;;;8.10;3.50;;;;;;;;;;5075307;28;20108;-89
2021/11/27 03:43:18;;;;;;;8.60;4.10;;;;;;;;;;5048318;28;20068;-89
2021/11/27 03:45:43;;;;;;;8.63;4.13;;;;;;;;;;5085945;28;20416;-90
2021/11/27 03:48:12;;;;;;;8.73;3.83;;;;;;;;;;5069731;28;20022;-88
2021/11/27 03:50:44;;;;;;;7.57;3.80;;;;;;;;;;5041538;28;20584;-89
2021/11/27 03:53:11;;;;;;;10.37;3.50;;;;;;;;;;5085656;28;20392;-89
2021/11/27 03:55:36;;;;;;;6.00;3.03;;;;;;;;;;5038945;28;20078;-88
2021/11/27 03:58:02;;;;;;;8.13;3.60;;;;;;;;;;5085609;28;20025;-89
2021/11/27 04:00:27;;;;;;;8.20;3.10;;;;;;;;;;5085282;28;20020;-89
2021/11/27 04:02:53;;;;;;;13.33;3.70;;;;;;;;;;5051803;28;20380;-88
2021/11/27 04:05:19;;;;;;;9.10;4.37;;;;;;;;;;5071217;28;20013;-88
2021/11/27 04:07:45;;;;;;;8.20;4.20;;;;;;;;;;5085286;28;20380;-89
2021/11/27 04:10:10;;;;;;;7.97;3.87;;;;;;;;;;5085607;28;20029;-89
2021/11/27 04:12:35;;;;;;;6.60;3.70;;;;;;;;;;5051949;28;20066;-89
2021/11/27 04:15:02;;;;;;;11.20;4.03;;;;;;;;;;5078358;28;20021;-89
2021/11/27 04:17:28;;;;;;;7.30;3.57;;;;;;;;;;5053170;28;20024;-89
2021/11/27 04:19:53;;;;;;;9.40;3.87;;;;;;;;;;5055663;28;20017;-89
2021/11/27 04:22:18;;;;;;;8.57;4.10;;;;;;;;;;5088160;28;20461;-88
2021/11/27 04:24:43;;;;;;;12.07;4.67;;;;;;;;;;5035975;28;20016;-89
2021/11/27 04:27:09;;;;;;;10.47;4.10;;;;;;;;;;5035782;28;20021;-89
2021/11/27 04:29:34;;;;;;;9.27;3.80;;;;;;;;;;5036702;28;20013;-89
2021/11/27 04:31:59;;;;;;;7.83;3.67;;;;;;;;;;5089370;28;20032;-89
2021/11/27 04:34:24;;;;;;;12.33;4.30;;;;;;;;;;5043851;28;20051;-89
2021/11/27 04:36:49;;;;;;;8.20;4.10;;;;;;;;;;5054428;28;20473;-89
2021/11/27 04:39:15;;;;;;;6.53;3.60;;;;;;;;;;5089010;28;20025;-90
2021/11/27 04:41:40;;;;;;;14.47;4.50;;;;;;;;;;5053384;28;20557;-89
2021/11/27 04:44:05;;;;;;;12.90;4.90;;;;;;;;;;5089026;28;20060;-89
2021/11/27 04:46:30;;;;;;;13.50;4.50;;;;;;;;;;5056299;28;20053;-89
2021/11/27 04:48:55;;;;;;;12.67;4.70;;;;;;;;;;5082451;28;20052;-89
2021/11/27 04:51:21;;;;;;;11.20;4.93;;;;;;;;;;5047774;28;20056;-89
2021/11/27 04:53:46;;;;;;;9.43;4.40;;;;;;;;;;5055261;28;20050;-89
2021/11/27 04:56:11;;;;;;;12.87;4.50;;;;;;;;;;5056571;28;20100;-89
2021/11/27 04:58:36;;;;;;;7.73;4.17;;;;;;;;;;5056310;28;20025;-89
2021/11/27 05:01:02;;;;;;;7.17;3.77;;;;;;;;;;5088514;28;20113;-89
2021/11/27 05:03:27;;;;;;;7.43;3.70;;;;;;;;;;5088538;28;20029;-88
2021/11/27 05:05:52;;;;;;;8.17;3.70;;;;;;;;;;5050186;28;20162;-89
2021/11/27 05:08:18;;;;;;;7.13;3.73;;;;;;;;;;5037685;28;20021;-89
2021/11/27 05:10:43;;;;;;;5.97;2.80;;;;;;;;;;5083105;28;20021;-89
2021/11/27 05:13:09;;;;;;;7.40;4.13;;;;;;;;;;5067368;28;20025;-89
2021/11/27 05:15:34;;;;;;;6.70;3.10;;;;;;;;;;5049034;28;20035;-89
2021/11/27 05:17:59;;;;;;;7.23;3.33;;;;;;;;;;5086940;28;20033;-89
2021/11/27 05:20:24;;;;;;;5.60;3.23;;;;;;;;;;5086351;28;20056;-88
2021/11/27 05:22:50;;;;;;;11.50;4.23;;;;;;;;;;5054687;28;20436;-89
2021/11/27 05:25:15;;;;;;;11.03;4.30;;;;;;;;;;5054573;28;20024;-89
2021/11/27 05:27:40;;;;;;;7.80;4.13;;;;;;;;;;5054498;28;20096;-89
2021/11/27 05:30:07;;;;;;;12.47;4.00;;;;;;;;;;5086260;28;20025;-89
2021/11/27 05:35:00;;;;;;;10.77;4.60;;;;;;;;;;5050088;28;20030;-88
2021/11/27 05:37:26;;;;;;;11.30;4.63;;;;;;;;;;5034845;28;20021;-88
2021/11/27 05:39:51;;;;;;;11.93;5.13;;;;;;;;;;5035607;28;20027;-89
2021/11/27 05:42:18;;;;;;;13.13;5.13;;;;;;;;;;5054545;28;20021;-88
2021/11/27 05:44:43;;;;;;;11.97;5.20;;;;;;;;;;5074103;28;20053;-89
2021/11/27 05:47:09;;;;;;;11.83;5.10;;;;;;;;;;5053859;28;20117;-89
2021/11/27 05:49:35;;;;;;;16.33;5.13;;;;;;;;;;5087736;28;20100;-89
2021/11/27 05:52:00;;;;;;;12.63;5.73;;;;;;;;;;5050516;28;20017;-89
2021/11/27 05:54:25;;;;;;;12.33;5.30;;;;;;;;;;5044053;28;20104;-89
2021/11/27 05:56:50;;;;;;;13.20;5.30;;;;;;;;;;5085866;28;20028;-89
2021/11/27 05:59:16;;;;;;;14.77;6.63;;;;;;;;;;5041663;28;20021;-89
2021/11/27 06:01:41;;;;;;;13.00;5.63;;;;;;;;;;5073283;28;20082;-89
2021/11/27 06:04:06;;;;;;;12.70;5.83;;;;;;;;;;5053371;28;20156;-89
2021/11/27 06:06:32;;;;;;;11.43;5.33;;;;;;;;;;5087461;28;20025;-89
2021/11/27 06:08:57;;;;;;;13.87;6.03;;;;;;;;;;5069522;28;20028;-89
2021/11/27 06:11:23;;;;;;;13.83;5.90;;;;;;;;;;5042966;28;20021;-89
2021/11/27 06:13:48;;;;;;;27.07;5.53;;;;;;;;;;5073146;28;20108;-89
2021/11/27 06:16:13;;;;;;;18.20;6.77;;;;;;;;;;5085554;28;20067;-89
2021/11/27 06:18:39;;;;;;;78.63;24.10;;;;;;;;;;5087240;28;20013;-89
2021/11/27 06:21:05;;;;;;;58.60;20.37;;;;;;;;;;5053389;28;20428;-88
2021/11/27 06:23:30;;;;;;;53.70;19.20;;;;;;;;;;5043749;28;20065;-89
2021/11/27 06:25:56;;;;;;;53.40;17.77;;;;;;;;;;5051838;28;20074;-88
2021/11/27 06:28:21;;;;;;;38.77;16.87;;;;;;;;;;5053633;28;20021;-88
2021/11/27 06:30:46;;;;;;;23.67;10.47;;;;;;;;;;5042227;28;20017;-89
2021/11/27 06:33:11;;;;;;;21.80;8.30;;;;;;;;;;5051059;28;20029;-89
2021/11/27 06:35:37;;;;;;;15.93;7.00;;;;;;;;;;5043009;28;20024;-88
2021/11/27 06:38:02;;;;;;;18.10;7.73;;;;;;;;;;5072455;28;20035;-89
2021/11/27 06:40:27;;;;;;;19.40;7.90;;;;;;;;;;5079569;28;20025;-89
2021/11/27 06:42:53;;;;;;;20.47;8.43;;;;;;;;;;5047241;28;20024;-89
2021/11/27 06:45:18;;;;;;;18.43;6.40;;;;;;;;;;5054253;28;20009;-89
2021/11/27 06:47:43;;;;;;;21.10;8.77;;;;;;;;;;5041802;28;20124;-89
2021/11/27 06:50:09;;;;;;;21.47;9.03;;;;;;;;;;5049506;28;20183;-89
2021/11/27 06:52:34;;;;;;;19.90;8.20;;;;;;;;;;5084732;28;20520;-89
2021/11/27 06:55:00;;;;;;;19.40;7.57;;;;;;;;;;5085894;28;20393;-88
2021/11/27 06:57:25;;;;;;;16.50;7.00;;;;;;;;;;5039328;28;20522;-88
2021/11/27 06:59:50;;;;;;;14.90;6.83;;;;;;;;;;5086348;28;20488;-89
2021/11/27 07:02:15;;;;;;;17.40;6.30;;;;;;;;;;5082389;28;20384;-89
2021/11/27 07:04:40;;;;;;;16.80;6.40;;;;;;;;;;5042728;28;20044;-88
2021/11/27 07:07:06;;;;;;;17.17;6.30;;;;;;;;;;5086140;28;20487;-89
2021/11/27 07:09:33;;;;;;;15.53;5.70;;;;;;;;;;5086522;28;20372;-89
2021/11/27 07:11:58;;;;;;;15.57;5.27;;;;;;;;;;5071580;28;20079;-88
2021/11/27 07:14:23;;;;;;;12.20;5.37;;;;;;;;;;5086182;28;20460;-89
2021/11/27 07:16:48;;;;;;;15.53;5.33;;;;;;;;;;5086226;28;20025;-89
2021/11/27 07:19:13;;;;;;;16.23;5.60;;;;;;;;;;5086042;28;20086;-89
2021/11/27 07:21:39;;;;;;;13.77;5.17;;;;;;;;;;5052033;28;20017;-90
2021/11/27 07:24:05;;;;;;;15.27;5.63;;;;;;;;;;5085885;28;20017;-88
2021/11/27 07:26:31;;;;;;;14.57;6.10;;;;;;;;;;5077848;28;20025;-89
2021/11/27 07:28:58;;;;;;;24.77;8.73;;;;;;;;;;5046279;28;20469;-89
2021/11/27 07:31:24;;;;;;;23.40;8.30;;;;;;;;;;5078269;28;20400;-89
2021/11/27 07:33:50;;;;;;;16.90;6.93;;;;;;;;;;5053631;28;20020;-89
2021/11/27 07:36:15;;;;;;;17.37;6.33;;;;;;;;;;5082890;28;20437;-88
2021/11/27 07:38:40;;;;;;;20.40;7.90;;;;;;;;;;5085778;28;20396;-89
2021/11/27 07:41:06;;;;;;;22.87;7.50;;;;;;;;;;5085903;28;20037;-89
2021/11/27 07:43:33;;;;;;;15.33;6.23;;;;;;;;;;5085606;28;20017;-89
2021/11/27 07:45:58;;;;;;;17.23;6.03;;;;;;;;;;5085746;28;20044;-89
2021/11/27 07:48:24;;;;;;;16.30;6.10;;;;;;;;;;5053471;28;20093;-88
2021/11/27 07:50:49;;;;;;;16.30;5.10;;;;;;;;;;5053291;28;20071;-89
2021/11/27 07:53:15;;;;;;;11.47;4.97;;;;;;;;;;5085974;28;20079;-89
2021/11/27 07:55:40;;;;;;;16.53;6.03;;;;;;;;;;5085644;28;20044;-89
2021/11/27 07:58:05;;;;;;;12.17;4.90;;;;;;;;;;5051811;28;20033;-89
2021/11/27 08:00:30;;;;;;;12.27;5.43;;;;;;;;;;5081500;28;20021;-89
2021/11/27 08:02:55;;;;;;;12.87;5.23;;;;;;;;;;5042000;28;20029;-89
2021/11/27 08:05:21;;;;;;;14.40;5.47;;;;;;;;;;5051214;28;20013;-88
2021/11/27 08:07:46;;;;;;;16.80;5.43;;;;;;;;;;5051891;28;20025;-89
2021/11/27 08:10:13;;;;;;;12.40;5.20;;;;;;;;;;5053386;28;20094;-90
2021/11/27 08:12:38;;;;;;;15.23;5.70;;;;;;;;;;5085272;28;20033;-88
2021/11/27 08:15:04;;;;;;;15.03;6.30;;;;;;;;;;5053151;28;20380;-89
2021/11/27 08:17:30;;;;;;;13.23;5.70;;;;;;;;;;5085394;28;20469;-89
2021/11/27 08:19:55;;;;;;;10.60;5.07;;;;;;;;;;5075659;28;20028;-87
2021/11/27 08:22:21;;;;;;;16.87;5.83;;;;;;;;;;5049457;28;20531;-88
2021/11/27 08:24:47;;;;;;;15.50;5.97;;;;;;;;;;5082992;28;20104;-88
2021/11/27 08:27:19;;;;;;;12.93;5.23;;;;;;;;;;5031855;28;20021;-88
2021/11/27 08:29:44;;;;;;;13.85;5.55;;;;;;;;;;5036987;28;20043;-89
2021/11/27 08:32:09;;;;;;;11.13;4.83;;;;;;;;;;5039997;28;20119;-89
2021/11/27 08:34:35;;;;;;;15.10;5.47;;;;;;;;;;5085057;28;20103;-88
2021/11/27 08:37:00;;;;;;;16.00;5.97;;;;;;;;;;5085000;28;20384;-88
2021/11/27 08:39:25;;;;;;;19.13;5.93;;;;;;;;;;5085034;28;20033;-88
2021/11/27 08:41:50;;;;;;;15.57;6.27;;;;;;;;;;5081010;28;20024;-88
2021/11/27 08:44:16;;;;;;;14.33;5.70;;;;;;;;;;5037889;28;20020;-88
2021/11/27 08:46:41;;;;;;;16.90;7.10;;;;;;;;;;5047398;28;20017;-88
2021/11/27 08:49:07;;;;;;;19.17;7.80;;;;;;;;;;5044528;28;20368;-87
2021/11/27 08:51:32;;;;;;;17.73;8.00;;;;;;;;;;5078823;28;20078;-89
2021/11/27 08:53:57;;;;;;;20.80;8.13;;;;;;;;;;5084883;28;20040;-88
2021/11/27 08:56:22;;;;;;;24.63;7.90;;;;;;;;;;5034580;28;20064;-89
2021/11/27 08:58:48;;;;;;;30.67;8.27;;;;;;;;;;5037675;28;20017;-89
2021/11/27 09:01:14;;;;;;;16.20;6.57;;;;;;;;;;5073261;28;20117;-89
2021/11/27 09:03:40;;;;;;;20.57;7.87;;;;;;;;;;5049071;28;20517;-88
2021/11/27 09:06:05;;;;;;;19.50;6.90;;;;;;;;;;5034264;28;20116;-89
2021/11/27 09:08:31;;;;;;;25.33;7.17;;;;;;;;;;5037660;28;20063;-88
2021/11/27 09:10:56;;;;;;;20.40;6.43;;;;;;;;;;5039390;28;20025;-89
2021/11/27 09:13:21;;;;;;;21.90;7.80;;;;;;;;;;5040801;28;20018;-89
2021/11/27 09:15:47;;;;;;;24.53;6.93;;;;;;;;;;5043488;28;20025;-90
2021/11/27 09:18:12;;;;;;;16.93;6.20;;;;;;;;;;5044199;28;20056;-89
2021/11/27 09:20:38;;;;;;;14.53;5.83;;;;;;;;;;5087970;28;20013;-89
2021/11/27 09:23:03;;;;;;;16.40;5.87;;;;;;;;;;5048305;28;20473;-89
2021/11/27 09:25:29;;;;;;;14.53;6.20;;;;;;;;;;5034972;28;20108;-89
2021/11/27 09:27:55;;;;;;;21.73;6.83;;;;;;;;;;5039899;28;20023;-89
2021/11/27 09:30:20;;;;;;;18.17;6.73;;;;;;;;;;5048109;28;20059;-88
2021/11/27 09:32:45;;;;;;;19.13;7.10;;;;;;;;;;5081254;28;20052;-89
2021/11/27 09:35:10;;;;;;;16.57;6.13;;;;;;;;;;5088115;28;20033;-89
2021/11/27 09:37:36;;;;;;;16.07;6.53;;;;;;;;;;5088228;28;20029;-89
2021/11/27 09:40:03;;;;;;;24.57;7.50;;;;;;;;;;5075063;28;20116;-88
2021/11/27 09:42:29;;;;;;;14.23;5.37;;;;;;;;;;5087992;28;20022;-89
2021/11/27 09:44:54;;;;;;;17.70;6.20;;;;;;;;;;5087074;28;20043;-89
2021/11/27 09:47:20;;;;;;;23.97;7.40;;;;;;;;;;5054205;28;20021;-88
2021/11/27 09:49:46;;;;;;;16.50;5.57;;;;;;;;;;5087678;28;20013;-88
2021/11/27 09:52:11;;;;;;;20.07;6.47;;;;;;;;;;5082936;28;20029;-89
2021/11/27 09:54:37;;;;;;;12.87;5.17;;;;;;;;;;5055391;28;20610;-88
2021/11/27 09:57:06;;;;;;;22.47;6.90;;;;;;;;;;5087341;28;20021;-88
2021/11/27 09:59:31;;;;;;;17.47;5.87;;;;;;;;;;5053862;28;20025;-88
2021/11/27 10:01:57;;;;;;;19.50;5.77;;;;;;;;;;5053426;28;20038;-88
2021/11/27 10:04:23;;;;;;;19.53;6.57;;;;;;;;;;5079723;28;20024;-88
2021/11/27 10:06:48;;;;;;;14.03;5.37;;;;;;;;;;5047314;28;20115;-88
2021/11/27 10:09:15;;;;;;;25.53;2.63;;;;;;;;;;5076549;28;20028;-88
2021/11/27 10:11:41;;;;;;;18.87;5.27;;;;;;;;;;5033241;28;20025;-88
2021/11/27 10:14:06;;;;;;;22.27;7.03;;;;;;;;;;5037087;28;20115;-88
2021/11/27 10:16:33;;;;;;;15.40;5.77;;;;;;;;;;5079890;28;20021;-88
2021/11/27 10:19:05;;;;;;;16.40;6.47;;;;;;;;;;5081911;28;20061;-88
2021/11/27 10:21:31;;;;;;;14.83;5.90;;;;;;;;;;5086890;28;20025;-87
2021/11/27 10:23:56;;;;;;;14.90;5.03;;;;;;;;;;5073908;28;20075;-88
2021/11/27 10:26:32;;;;;;;9.00;3.20;;;;;;;;;;5078170;28;20020;-88
2021/11/27 10:29:17;;;;;;;14.03;5.43;;;;;;;;;;5068764;28;20072;-86
2021/11/27 10:31:43;;;;;;;13.90;5.13;;;;;;;;;;5047407;28;20432;-87
2021/11/27 10:34:14;;;;;;;11.87;4.40;;;;;;;;;;5043595;28;20029;-88
2021/11/27 10:36:39;;;;;;;15.27;5.20;;;;;;;;;;5039202;28;20103;-88
2021/11/27 10:39:07;;;;;;;13.13;4.47;;;;;;;;;;5069531;28;20061;-88
2021/11/27 10:41:37;;;;;;;12.53;4.53;;;;;;;;;;5036933;28;20056;-88
2021/11/27 10:44:06;;;;;;;15.60;5.37;;;;;;;;;;5038201;28;20024;-87
2021/11/27 10:46:33;;;;;;;13.13;5.20;;;;;;;;;;5075356;28;20036;-88
2021/11/27 10:48:59;;;;;;;15.00;4.90;;;;;;;;;;5079693;28;20485;-88
2021/11/27 10:51:24;;;;;;;14.03;4.97;;;;;;;;;;5086461;28;20060;-88
2021/11/27 10:53:57;;;;;;;14.97;4.97;;;;;;;;;;5073421;28;20025;-89
2021/11/27 10:56:37;;;;;;;18.63;4.40;;;;;;;;;;5045484;28;20362;-88
2021/11/27 10:59:05;;;;;;;7.50;3.47;;;;;;;;;;5065846;28;20040;-88
2021/11/27 11:01:30;;;;;;;18.20;5.47;;;;;;;;;;5045766;28;20027;-89
2021/11/27 11:03:55;;;;;;;15.90;5.37;;;;;;;;;;5086062;28;20017;-89
2021/11/27 11:06:25;;;;;;;20.50;5.60;;;;;;;;;;5076102;28;20036;-89
2021/11/27 11:08:51;;;;;;;18.40;5.63;;;;;;;;;;5032428;28;20048;-88
2021/11/27 11:11:19;;;;;;;11.30;4.10;;;;;;;;;;5033786;28;20468;-88
2021/11/27 11:13:45;;;;;;;14.57;5.33;;;;;;;;;;5045852;28;20025;-88
2021/11/27 11:16:10;;;;;;;24.70;6.33;;;;;;;;;;5073461;28;20387;-88
2021/11/27 11:18:35;;;;;;;16.83;5.20;;;;;;;;;;5053498;28;20025;-89
2021/11/27 11:21:02;;;;;;;10.30;3.30;;;;;;;;;;5069605;28;20087;-89
2021/11/27 11:23:29;;;;;;;16.97;4.07;;;;;;;;;;5025970;28;20036;-90
2021/11/27 11:25:57;;;;;;;12.53;4.00;;;;;;;;;;5063763;28;20380;-87
2021/11/27 11:28:23;;;;;;;16.07;4.43;;;;;;;;;;5048513;28;20033;-90
2021/11/27 11:30:50;;;;;;;16.90;4.30;;;;;;;;;;5038018;28;20029;-87
2021/11/27 11:33:16;;;;;;;10.37;3.40;;;;;;;;;;5033019;28;20037;-88
2021/11/27 11:35:41;;;;;;;12.50;4.10;;;;;;;;;;5073416;28;20029;-88
2021/11/27 11:38:11;;;;;;;3.30;1.67;;;;;;;;;;5047586;28;20385;-88
2021/11/27 11:40:37;;;;;;;5.47;1.90;;;;;;;;;;5085622;28;20647;-88
2021/11/27 11:43:02;;;;;;;6.40;3.17;;;;;;;;;;5076670;28;20028;-88
2021/11/27 11:45:28;;;;;;;8.23;2.70;;;;;;;;;;5042400;28;20027;-87
2021/11/27 11:47:53;;;;;;;11.27;2.77;;;;;;;;;;5085314;28;20055;-88
2021/11/27 11:50:20;;;;;;;9.17;2.50;;;;;;;;;;5047555;28;20483;-88
2021/11/27 11:52:56;;;;;;;23.80;3.73;;;;;;;;;;5042058;28;20116;-88
2021/11/27 11:55:21;;;;;;;7.43;2.17;;;;;;;;;;5049112;28;20013;-87
2021/11/27 11:57:54;;;;;;;10.90;3.33;;;;;;;;;;5085482;28;20491;-87
2021/11/27 12:00:19;;;;;;;;;;;;;;;;;;5071395;28;20028;-87
2021/11/27 12:02:48;;;;;;;11.67;3.40;;;;;;;;;;5049472;28;19995;-87
2021/11/27 12:05:16;;;;;;;5.93;2.57;;;;;;;;;;5072214;28;20022;-87
2021/11/27 12:07:47;;;;;;;13.03;3.10;;;;;;;;;;5085084;28;20025;-87
2021/11/27 12:10:21;;;;;;;7.70;2.60;;;;;;;;;;5051868;28;20033;-87
2021/11/27 12:13:05;;;;;;;12.53;3.63;;;;;;;;;;5035200;28;20028;-87
2021/11/27 12:15:30;;;;;;;6.60;2.80;;;;;;;;;;5046630;28;20026;-89
2021/11/27 12:18:03;;;;;;;11.77;3.20;;;;;;;;;;5051434;28;20033;-87
2021/11/27 12:20:41;;;;;;;7.80;3.13;;;;;;;;;;5052489;28;20033;-87
2021/11/27 12:23:24;;;;;;;16.93;3.03;;;;;;;;;;5044137;28;20025;-87
2021/11/27 12:26:11;;;;;;;15.97;2.57;;;;;;;;;;5047045;28;20112;-87
2021/11/27 12:29:03;;;;;;;10.83;2.77;;;;;;;;;;5034012;28;20036;-87
2021/11/27 12:31:45;;;;;;;6.82;2.20;;;;;;;;;;5077186;28;20517;-87
2021/11/27 12:34:11;;;;;;;9.05;2.85;;;;;;;;;;5018362;28;20030;-88
2021/11/27 12:36:42;;;;;;;8.55;2.78;;;;;;;;;;5067506;28;20021;-87
2021/11/27 12:39:22;;;;;;;8.55;2.90;;;;;;;;;;5035935;28;20112;-87
2021/11/27 12:42:06;;;;;;;10.38;2.88;;;;;;;;;;5049355;28;20556;-88
2021/11/27 12:44:44;;;;;;;9.57;2.75;;;;;;;;;;5048789;28;20013;-84
2021/11/27 12:47:12;;;;;;;9.32;1.77;;;;;;;;;;5034167;28;20168;-84
2021/11/27 12:49:37;;;;;;;10.80;3.05;;;;;;;;;;5047190;28;20013;-85
2021/11/27 12:52:18;;;;;;;5.05;1.75;;;;;;;;;;5054761;28;20025;-85
2021/11/27 12:54:48;;;;;;;6.28;2.00;;;;;;;;;;5045381;28;20376;-85
2021/11/27 12:57:18;;;;;;;3.90;1.83;;;;;;;;;;5066212;28;20129;-84
2021/11/27 12:59:47;;;;;;;11.27;3.20;;;;;;;;;;5069020;28;20468;-85
2021/11/27 13:02:17;;;;;;;6.93;2.22;;;;;;;;;;5085845;28;20013;-84
2021/11/27 13:04:42;;;;;;;10.10;2.85;;;;;;;;;;5078766;28;20024;-84
2021/11/27 13:07:08;;;;;;;16.17;2.78;;;;;;;;;;5051383;28;20392;-84
2021/11/27 13:09:33;;;;;;;6.75;1.60;;;;;;;;;;5080287;28;20536;-84
2021/11/27 13:12:00;;;;;;;4.03;1.92;;;;;;;;;;5049723;28;20052;-84
2021/11/27 13:14:29;;;;;;;10.65;2.92;;;;;;;;;;5081078;28;20112;-87
2021/11/27 13:17:04;;;;;;;10.63;2.27;;;;;;;;;;5067242;28;20508;-84
2021/11/27 13:19:31;;;;;;;7.53;3.00;;;;;;;;;;5036697;28;20381;-84
2021/11/27 13:22:08;;;;;;;5.70;2.07;;;;;;;;;;5043949;28;20024;-83
2021/11/27 13:24:36;;;;;;;5.67;2.37;;;;;;;;;;5053946;28;20017;-84
2021/11/27 13:27:02;;;;;;;8.00;1.63;;;;;;;;;;5084671;28;20033;-86
2021/11/27 13:29:28;;;;;;;11.50;2.67;;;;;;;;;;5037766;28;20068;-83
2021/11/27 13:31:53;;;;;;;2.23;1.07;;;;;;;;;;5034927;28;20155;-83
2021/11/27 13:34:18;;;;;;;6.47;2.33;;;;;;;;;;5073449;28;20021;-83
2021/11/27 13:36:51;;;;;;;9.17;2.50;;;;;;;;;;5072286;28;20029;-83
2021/11/27 13:39:16;;;;;;;;;;;;;;;;;;5036233;28;20392;-82
2021/11/27 13:41:42;;;;;;;7.17;2.60;;;;;;;;;;5048018;28;19917;-85
2021/11/27 13:44:08;;;;;;;9.73;2.70;;;;;;;;;;5076081;28;20090;-85
2021/11/27 13:46:49;;;;;;;6.23;2.67;;;;;;;;;;5081903;28;20021;-87
2021/11/27 13:49:25;;;;;;;8.88;3.03;;;;;;;;;;5043739;28;20021;-87
2021/11/27 13:51:50;;;;;;;11.90;3.10;;;;;;;;;;5084243;28;20477;-87
2021/11/27 13:54:15;;;;;;;7.17;2.90;;;;;;;;;;5064759;28;20018;-87
2021/11/27 13:56:40;;;;;;;8.43;2.77;;;;;;;;;;5042230;28;20077;-89
2021/11/27 13:59:05;;;;;;;12.37;3.20;;;;;;;;;;5087087;28;20060;-86
2021/11/27 14:01:31;;;;;;;11.30;2.87;;;;;;;;;;5086948;28;20052;-87
2021/11/27 14:03:56;;;;;;;8.43;2.97;;;;;;;;;;5078885;28;20118;-86
2021/11/27 14:06:23;;;;;;;7.50;2.60;;;;;;;;;;5086931;28;20599;-86
2021/11/27 14:08:55;;;;;;;10.67;3.37;;;;;;;;;;5054561;28;20022;-86
2021/11/27 14:11:29;;;;;;;11.38;3.05;;;;;;;;;;5086900;28;20024;-87
2021/11/27 14:14:07;;;;;;;9.37;3.00;;;;;;;;;;5070872;28;20500;-86
2021/11/27 14:16:39;;;;;;;10.43;3.50;;;;;;;;;;5053234;28;20013;-87
2021/11/27 14:19:27;;;;;;;12.35;4.15;;;;;;;;;;5086618;28;20519;-87
2021/11/27 14:22:02;;;;;;;10.47;2.87;;;;;;;;;;5042580;28;20558;-87
2021/11/27 14:24:27;;;;;;;9.67;3.80;;;;;;;;;;5069342;28;20063;-85
2021/11/27 14:27:02;;;;;;;13.83;5.90;;;;;;;;;;5086927;28;20029;-85
2021/11/27 14:29:27;;;;;;;10.43;3.67;;;;;;;;;;5052729;28;20028;-85
2021/11/27 14:31:52;;;;;;;9.57;3.10;;;;;;;;;;5086758;28;20013;-85
2021/11/27 14:34:19;;;;;;;10.87;2.97;;;;;;;;;;5064219;28;20049;-87
2021/11/27 14:36:47;;;;;;;10.40;3.20;;;;;;;;;;5048893;28;20104;-88